Arnultovice, Czech Republic

10:40 PM CEST on July 24, 2017 (GMT +0200)
Amalín | | Change Station

Elev 944 ft 50.22 °N, 17.67 °E | Updated 3 minutes ago

Rain
Rain
61.2 °F
Feels Like 61.2 °F
N
4.3
Wind Variable Wind from NW
Gusts 8.1 mph

Today
High -- | Low -- °F
--% Chance of Precip.
Yesterday
High -- | Low -- °F
Precip. -- in
Pressure 29.62 in
Visibility 6.2 miles
Clouds Few 900 ft
Mostly Cloudy 1600 ft
Overcast 3500 ft
Dew Point 60 °F
Humidity 96%
Rainfall 0.72 in
Snow Depth Not available.
5:07 AM 8:44 PM
Waxing Crescent, 3% visible
METAR LKMT 242030Z VRB02KT 9999 -RA FEW009 BKN016 OVC035 17/16 Q1003 NOSIG
Pressure 29.62 in
Visibility 6.2 miles
Clouds Few 900 ft
Mostly Cloudy 1600 ft
Overcast 3500 ft
Dew Point 60 °F
Humidity 96%
Rainfall 0.72 in
Snow Depth Not available.
5:07 AM 8:44 PM
Waxing Crescent, 3% visible
METAR LKMT 242030Z VRB02KT 9999 -RA FEW009 BKN016 OVC035 17/16 Q1003 NOSIG

Get Severe Weather Alerts

Thanks for signing up!

Be on the lookout for a verification email in your inbox.

You'll start receiving the daily forecast at 6 AM.

×

10-Day Weather Forecast

×

Almanac

Astronomy

Jul. 24, 2017 Rise Set
Actual Time
Civil Twilight
Nautical Twilight
Astronomical Twilight
Moon
Length of Visible Light
Length of Day
Tomorrow will be .
, % of the Moon is Illuminated

Today's Extremes

Country Highs Country Lows

Community

WunderPhotos

Category 6

Welcome to Category 6. This is the collective home for Weather Underground's featured writeups by Dr. Jeff Masters (right), Bob Henson (left), Chris Burt, and other regular contributors.

Nearby

Air Quality

  Air Quality AQ Index Pollutant
Not available.

Snow Depth

Station Depth Elevation

Earthquake Activity

City Distance Mag. Time & Date
Minimum magnitude displayed is 2.5.

Coastal Water Temperatures

Place Temperature

Stations

Nearby Weather Stations

Station Location Temp. Windchill Dew Point Humidity Wind Precip. Elev Updated Type